Time;durP1;ratioP1;P1;durP2;ratioP2;P2;SDS_P1;SDS_P2;PMS_P1;PMS_P2;Temp;Humidity;BMP_temperature;BMP_pressure;BME280_temperature;BME280_humidity;BME280_pressure;Samples;Min_cycle;Max_cycle;Signal;HPM_P1;HPM_P2
2022/01/20 00:00:20;;;;;;;0.30;0.30;;;3.10;99.90;;;;;;4917556;29;20444;-82
2022/01/20 00:02:55;;;;;;;0.30;0.20;;;3.00;99.90;;;;;;4917630;29;20488;-82
2022/01/20 00:06:04;;;;;;;0.30;0.30;;;3.00;99.90;;;;;;4917470;29;20483;-82
2022/01/20 00:08:32;;;;;;;0.30;0.30;;;3.00;99.90;;;;;;4917105;29;20479;-82
2022/01/20 00:27:29;;;;;;;0.30;0.30;;;3.00;99.90;;;;;;4936354;29;20458;-82
2022/01/20 00:30:28;;;;;;;0.30;0.30;;;3.10;99.90;;;;;;4936189;29;20486;-82
2022/01/20 00:33:03;;;;;;;0.30;0.20;;;3.00;99.90;;;;;;4935880;29;20467;-82
2022/01/20 00:37:14;;;;;;;0.30;0.30;;;3.00;99.90;;;;;;4936231;29;20486;-82
2022/01/20 00:38:16;;;;;;;0.30;0.20;;;3.00;99.90;;;;;;4935846;29;20522;-82
2022/01/20 00:40:42;;;;;;;0.30;0.20;;;3.00;99.90;;;;;;4936128;29;20893;-82
2022/01/20 00:43:09;;;;;;;0.30;0.20;;;3.00;99.90;;;;;;4936428;29;20830;-82
2022/01/20 00:45:36;;;;;;;0.30;0.20;;;3.00;99.90;;;;;;4935974;29;20490;-82
2022/01/20 00:48:04;;;;;;;0.30;0.20;;;3.00;99.90;;;;;;4936035;29;20447;-82
2022/01/20 00:50:31;;;;;;;0.30;0.20;;;3.10;99.90;;;;;;4935976;29;20478;-82
2022/01/20 00:52:58;;;;;;;0.30;0.30;;;3.00;99.90;;;;;;4936521;29;20459;-82
2022/01/20 00:55:25;;;;;;;0.30;0.30;;;3.10;99.90;;;;;;4935793;29;20494;-82
2022/01/20 00:57:52;;;;;;;0.30;0.20;;;3.10;99.90;;;;;;4935906;29;20455;-82
2022/01/20 01:00:19;;;;;;;0.30;0.30;;;3.10;99.90;;;;;;4936002;29;20512;-82
2022/01/20 01:02:46;;;;;;;0.30;0.20;;;3.10;99.90;;;;;;4935902;29;20542;-82
2022/01/20 01:05:15;;;;;;;0.30;0.20;;;3.10;99.90;;;;;;4937680;29;20462;-83
2022/01/20 01:07:47;;;;;;;0.30;0.30;;;3.10;99.90;;;;;;4939427;29;20440;-83
2022/01/20 01:10:15;;;;;;;0.30;0.20;;;3.10;99.90;;;;;;4939649;29;20449;-83
2022/01/20 01:12:48;;;;;;;0.30;0.30;;;3.10;99.90;;;;;;4939549;29;20465;-83
2022/01/20 01:15:19;;;;;;;0.30;0.20;;;3.10;99.90;;;;;;4939401;29;20547;-83
2022/01/20 01:20:45;;;;;;;0.40;0.30;;;3.00;99.90;;;;;;4939496;29;20527;-83
2022/01/20 01:23:11;;;;;;;0.30;0.20;;;2.90;99.90;;;;;;4939233;29;20947;-83
2022/01/20 01:25:38;;;;;;;0.30;0.30;;;2.80;99.90;;;;;;4939264;29;20474;-83
2022/01/20 01:28:05;;;;;;;0.30;0.20;;;2.80;99.90;;;;;;4939119;29;20444;-83
2022/01/20 01:31:07;;;;;;;0.30;0.30;;;2.70;99.90;;;;;;4939039;29;20439;-83
2022/01/20 01:33:37;;;;;;;0.30;0.30;;;2.70;99.90;;;;;;4939319;29;20819;-83
2022/01/20 01:36:08;;;;;;;0.30;0.30;;;2.60;99.90;;;;;;4939122;29;20486;-83
2022/01/20 01:38:36;;;;;;;0.30;0.30;;;2.50;99.90;;;;;;4939203;29;20447;-83
2022/01/20 01:41:06;;;;;;;0.30;0.20;;;2.40;99.90;;;;;;4939232;29;20864;-83
2022/01/20 01:43:33;;;;;;;0.30;0.20;;;2.40;99.90;;;;;;4938933;29;20455;-83
2022/01/20 01:46:01;;;;;;;0.30;0.20;;;2.30;99.90;;;;;;4939024;29;20431;-83
2022/01/20 01:48:28;;;;;;;0.30;0.27;;;2.30;99.90;;;;;;4938979;29;20455;-83
2022/01/20 01:50:59;;;;;;;0.30;0.30;;;2.40;99.90;;;;;;4938790;29;20454;-83
2022/01/20 01:53:28;;;;;;;0.30;0.20;;;2.40;99.90;;;;;;4938704;29;20864;-83
2022/01/20 01:55:58;;;;;;;0.30;0.30;;;2.30;99.90;;;;;;4938588;29;21089;-84
2022/01/20 01:58:26;;;;;;;0.30;0.20;;;2.40;99.90;;;;;;4938845;29;20445;-83
2022/01/20 02:00:55;;;;;;;0.30;0.20;;;2.30;99.90;;;;;;4938360;29;20510;-83
2022/01/20 02:03:24;;;;;;;0.30;0.20;;;2.30;99.90;;;;;;4938581;29;20838;-83
2022/01/20 02:06:09;;;;;;;0.30;0.20;;;2.30;99.90;;;;;;4938648;29;20466;-83
2022/01/20 02:08:43;;;;;;;0.30;0.20;;;2.30;99.90;;;;;;4938570;29;20494;-83
2022/01/20 02:19:26;;;;;;;0.30;0.30;;;2.40;99.90;;;;;;4938221;29;20910;-83
2022/01/20 02:21:56;;;;;;;0.30;0.20;;;2.40;99.90;;;;;;4938367;29;20435;-82
2022/01/20 02:24:23;;;;;;;0.30;0.30;;;2.40;99.90;;;;;;4937852;29;20979;-83
2022/01/20 02:26:51;;;;;;;0.30;0.30;;;2.50;99.90;;;;;;4938021;29;20444;-83
2022/01/20 02:29:19;;;;;;;0.30;0.20;;;2.40;99.90;;;;;;4939114;29;20450;-82
2022/01/20 02:31:46;;;;;;;0.30;0.30;;;2.50;99.90;;;;;;4938056;29;20459;-82
2022/01/20 02:34:16;;;;;;;0.30;0.20;;;2.50;99.90;;;;;;4938026;29;20478;-82
2022/01/20 02:36:45;;;;;;;0.30;0.30;;;2.50;99.90;;;;;;4937774;29;20484;-82
2022/01/20 02:39:28;;;;;;;0.30;0.30;;;2.60;99.90;;;;;;4937975;29;20461;-82
2022/01/20 02:44:53;;;;;;;0.30;0.20;;;2.60;99.90;;;;;;4937776;29;20445;-82
2022/01/20 02:47:21;;;;;;;0.30;0.20;;;2.60;99.90;;;;;;4938033;29;20457;-82
2022/01/20 02:49:49;;;;;;;0.30;0.20;;;2.60;99.90;;;;;;4937833;29;20458;-82
2022/01/20 02:52:16;;;;;;;0.30;0.30;;;2.60;99.90;;;;;;4937428;29;20978;-82
2022/01/20 02:54:44;;;;;;;0.30;0.20;;;2.60;99.90;;;;;;4937428;29;20467;-82
2022/01/20 02:57:11;;;;;;;0.30;0.30;;;2.60;99.90;;;;;;4937849;29;20486;-82
2022/01/20 02:59:40;;;;;;;0.30;0.20;;;2.60;99.90;;;;;;4937709;29;20455;-82
2022/01/20 03:02:09;;;;;;;0.30;0.30;;;2.60;99.90;;;;;;4937546;29;20448;-81
2022/01/20 03:04:37;;;;;;;0.30;0.20;;;2.60;99.90;;;;;;4937383;29;20464;-82
2022/01/20 03:07:04;;;;;;;0.30;0.20;;;2.60;99.90;;;;;;4937395;29;20539;-82
2022/01/20 03:09:46;;;;;;;0.30;0.30;;;2.60;99.90;;;;;;4937106;29;20446;-82
2022/01/20 03:12:14;;;;;;;0.30;0.20;;;2.60;99.90;;;;;;4937076;29;20919;-82
2022/01/20 03:14:43;;;;;;;0.30;0.20;;;2.60;99.90;;;;;;4937036;29;20497;-82
2022/01/20 03:17:14;;;;;;;0.30;0.20;;;2.60;99.90;;;;;;4937436;29;20490;-82
2022/01/20 03:19:52;;;;;;;0.30;0.30;;;2.60;99.90;;;;;;4936982;29;20923;-82
2022/01/20 03:22:23;;;;;;;0.30;0.20;;;2.60;99.90;;;;;;4937258;29;20466;-82
2022/01/20 03:24:55;;;;;;;0.30;0.20;;;2.70;99.90;;;;;;4937013;29;20964;-82
2022/01/20 03:27:38;;;;;;;0.30;0.20;;;2.70;99.90;;;;;;4937861;29;20483;-83
2022/01/20 03:30:23;;;;;;;0.30;0.30;;;2.70;99.90;;;;;;4937271;29;20440;-82
2022/01/20 03:33:13;;;;;;;0.30;0.30;;;2.70;99.90;;;;;;4936415;29;20486;-82
2022/01/20 03:35:45;;;;;;;0.30;0.20;;;2.70;99.90;;;;;;4930568;29;20511;-82
2022/01/20 03:38:21;;;;;;;0.30;0.30;;;2.70;99.90;;;;;;4936697;29;20419;-82
2022/01/20 03:40:55;;;;;;;0.30;0.20;;;2.70;99.90;;;;;;4936647;29;20924;-82
2022/01/20 03:43:28;;;;;;;0.30;0.30;;;2.70;99.90;;;;;;4936525;29;20486;-82
2022/01/20 03:46:12;;;;;;;0.30;0.20;;;2.80;99.90;;;;;;4935913;29;20455;-82
2022/01/20 03:48:49;;;;;;;0.30;0.30;;;2.80;99.90;;;;;;4937409;29;20465;-82
2022/01/20 03:51:26;;;;;;;0.30;0.20;;;2.80;99.90;;;;;;4936769;29;20436;-83
2022/01/20 03:53:54;;;;;;;0.30;0.20;;;2.80;99.90;;;;;;4936631;29;20479;-82
2022/01/20 03:56:24;;;;;;;0.30;0.20;;;2.80;99.90;;;;;;4936575;29;20495;-82
2022/01/20 03:58:55;;;;;;;0.30;0.30;;;2.80;99.90;;;;;;4936682;29;20439;-82
2022/01/20 04:01:22;;;;;;;0.30;0.20;;;2.90;99.90;;;;;;4936593;29;20451;-81
2022/01/20 04:03:49;;;;;;;0.40;0.40;;;2.80;99.90;;;;;;4936179;29;20481;-82
2022/01/20 04:06:16;;;;;;;0.53;0.30;;;2.90;99.90;;;;;;4936515;29;20444;-82
2022/01/20 04:08:45;;;;;;;0.30;0.23;;;2.90;99.90;;;;;;4936473;29;20455;-81
2022/01/20 04:11:16;;;;;;;0.30;0.30;;;2.90;99.90;;;;;;4936396;29;20458;-82
2022/01/20 04:13:43;;;;;;;0.30;0.30;;;2.90;99.90;;;;;;4936221;29;20880;-82
2022/01/20 04:16:18;;;;;;;0.30;0.20;;;2.90;99.90;;;;;;4936060;29;20537;-82
2022/01/20 04:18:52;;;;;;;0.30;0.30;;;2.90;99.90;;;;;;4936322;29;20448;-82
2022/01/20 04:21:20;;;;;;;0.30;0.23;;;2.90;99.90;;;;;;4936469;29;20481;-82
2022/01/20 04:23:47;;;;;;;0.30;0.20;;;2.90;99.90;;;;;;4936159;29;20553;-82
2022/01/20 04:26:14;;;;;;;0.30;0.20;;;2.90;99.90;;;;;;4936002;29;20809;-82
2022/01/20 04:28:42;;;;;;;0.30;0.30;;;2.90;99.90;;;;;;4936124;29;20859;-82
2022/01/20 04:31:10;;;;;;;0.30;0.20;;;2.90;99.90;;;;;;4936187;29;20452;-82
2022/01/20 04:33:39;;;;;;;0.30;0.20;;;2.90;99.90;;;;;;4936130;29;20454;-82
2022/01/20 04:36:08;;;;;;;0.40;0.30;;;2.90;99.90;;;;;;4936095;29;20462;-81
2022/01/20 04:38:35;;;;;;;0.30;0.30;;;2.90;99.90;;;;;;4936477;29;20455;-82
2022/01/20 04:41:02;;;;;;;0.30;0.30;;;2.90;99.90;;;;;;4941882;29;20486;-82
2022/01/20 04:43:29;;;;;;;0.30;0.30;;;2.90;99.90;;;;;;4942387;29;20510;-82
2022/01/20 04:46:02;;;;;;;0.30;0.30;;;2.80;99.90;;;;;;4942176;29;20804;-82
2022/01/20 04:48:44;;;;;;;0.30;0.30;;;2.90;99.90;;;;;;4942081;29;20934;-82
2022/01/20 04:57:07;;;;;;;0.30;0.20;;;2.80;99.90;;;;;;4902109;29;21064;-82
2022/01/20 04:59:34;;;;;;;0.30;0.30;;;2.90;99.90;;;;;;4902126;29;20441;-82
2022/01/20 05:02:04;;;;;;;0.30;0.30;;;2.80;99.90;;;;;;4923069;29;20463;-82
2022/01/20 05:04:33;;;;;;;0.30;0.20;;;2.80;99.90;;;;;;4942198;29;20518;-82
2022/01/20 05:07:01;;;;;;;0.30;0.20;;;2.80;99.90;;;;;;4942174;29;20443;-82
2022/01/20 05:09:28;;;;;;;0.30;0.23;;;2.70;99.90;;;;;;4934531;29;20537;-82
2022/01/20 05:12:00;;;;;;;0.30;0.20;;;2.70;99.90;;;;;;4942473;29;20447;-82
2022/01/20 05:14:28;;;;;;;0.30;0.20;;;2.80;99.90;;;;;;4941626;29;20478;-82
2022/01/20 05:16:55;;;;;;;0.30;0.30;;;2.80;99.90;;;;;;4941520;29;20494;-82
2022/01/20 05:19:23;;;;;;;0.30;0.20;;;2.80;99.90;;;;;;4942762;29;20482;-82
2022/01/20 05:21:51;;;;;;;0.30;0.20;;;2.80;99.90;;;;;;4942463;29;20886;-82
2022/01/20 05:24:18;;;;;;;0.30;0.20;;;2.80;99.90;;;;;;4942112;29;20475;-82
2022/01/20 05:26:46;;;;;;;0.30;0.30;;;2.80;99.90;;;;;;4941997;29;20541;-82
2022/01/20 05:29:13;;;;;;;0.30;0.20;;;2.80;99.90;;;;;;4941732;29;20832;-82
2022/01/20 05:31:40;;;;;;;0.30;0.20;;;2.80;99.90;;;;;;4941769;29;20589;-82
2022/01/20 05:34:07;;;;;;;0.30;0.20;;;2.90;99.90;;;;;;4942089;29;20554;-82
2022/01/20 05:36:34;;;;;;;0.30;0.20;;;2.90;99.90;;;;;;4941892;29;20578;-82
2022/01/20 05:39:04;;;;;;;0.30;0.20;;;2.80;99.90;;;;;;4941623;29;20455;-82
2022/01/20 05:41:31;;;;;;;0.30;0.20;;;2.80;99.90;;;;;;4941711;29;20420;-82
2022/01/20 05:43:59;;;;;;;0.30;0.30;;;2.80;99.90;;;;;;4941557;29;20463;-82
2022/01/20 05:46:33;;;;;;;0.30;0.30;;;2.80;99.90;;;;;;4941651;29;20568;-82
2022/01/20 05:49:08;;;;;;;0.30;0.20;;;2.80;99.90;;;;;;4942160;29;20548;-82
2022/01/20 05:51:36;;;;;;;0.30;0.30;;;2.80;99.90;;;;;;4938876;29;20450;-82
2022/01/20 05:54:04;;;;;;;0.30;0.30;;;2.80;99.90;;;;;;4938702;29;20546;-82
2022/01/20 05:56:31;;;;;;;0.30;0.20;;;2.80;99.90;;;;;;4938792;29;20478;-82
2022/01/20 05:58:59;;;;;;;0.30;0.30;;;2.80;99.90;;;;;;4938523;29;20997;-82
2022/01/20 06:01:27;;;;;;;0.30;0.30;;;2.80;99.90;;;;;;4938552;29;20454;-82
2022/01/20 06:03:55;;;;;;;0.40;0.40;;;2.80;99.90;;;;;;4938603;29;20475;-82
2022/01/20 06:06:22;;;;;;;0.30;0.30;;;2.70;99.90;;;;;;4938605;29;20462;-82
2022/01/20 06:08:49;;;;;;;0.30;0.20;;;2.70;99.90;;;;;;4938617;29;20451;-82
2022/01/20 06:11:22;;;;;;;0.30;0.30;;;2.70;99.90;;;;;;4938475;29;20455;-82
2022/01/20 06:13:49;;;;;;;0.30;0.20;;;2.70;99.90;;;;;;4938510;29;20936;-82
2022/01/20 06:16:18;;;;;;;0.30;0.20;;;2.70;99.90;;;;;;4938232;29;20482;-82
2022/01/20 06:19:00;;;;;;;0.30;0.20;;;2.70;99.90;;;;;;4938034;29;20506;-82
2022/01/20 06:21:29;;;;;;;0.30;0.20;;;2.70;99.90;;;;;;4939463;29;20455;-82
2022/01/20 06:24:07;;;;;;;0.33;0.27;;;2.60;99.90;;;;;;4939844;29;20463;-82
2022/01/20 06:26:42;;;;;;;0.30;0.20;;;2.60;99.90;;;;;;4938016;29;20916;-82
2022/01/20 06:29:15;;;;;;;0.30;0.20;;;2.70;99.90;;;;;;4938382;29;20494;-81
2022/01/20 06:31:42;;;;;;;0.30;0.20;;;2.60;99.90;;;;;;4938874;29;20585;-83
2022/01/20 06:34:09;;;;;;;0.30;0.20;;;2.60;99.90;;;;;;4937760;29;20562;-83
2022/01/20 06:36:35;;;;;;;0.30;0.20;;;2.50;99.90;;;;;;4938031;29;20479;-82
2022/01/20 06:39:03;;;;;;;0.30;0.30;;;2.40;99.90;;;;;;4938126;29;20455;-82
2022/01/20 06:41:35;;;;;;;0.30;0.20;;;2.40;99.90;;;;;;4938014;29;20432;-82
2022/01/20 06:44:03;;;;;;;0.30;0.20;;;2.30;99.90;;;;;;4937840;29;21050;-82
2022/01/20 06:46:30;;;;;;;0.30;0.20;;;2.30;99.90;;;;;;4937881;29;20447;-82
2022/01/20 06:48:57;;;;;;;0.30;0.30;;;2.30;99.90;;;;;;4937628;29;20951;-82
2022/01/20 06:51:24;;;;;;;0.30;0.30;;;2.20;99.90;;;;;;4937854;29;20514;-82
2022/01/20 06:53:51;;;;;;;0.30;0.20;;;2.20;99.90;;;;;;4937564;29;20552;-81
2022/01/20 06:56:18;;;;;;;0.30;0.23;;;2.20;99.90;;;;;;4937457;29;20456;-82
2022/01/20 06:58:44;;;;;;;0.30;0.20;;;2.30;99.90;;;;;;4937537;29;20495;-82
2022/01/20 07:01:12;;;;;;;0.40;0.40;;;2.20;99.90;;;;;;4937616;29;20466;-81
2022/01/20 07:03:39;;;;;;;0.30;0.30;;;2.20;99.90;;;;;;4937300;29;22754;-81
2022/01/20 07:06:06;;;;;;;0.30;0.30;;;2.20;99.90;;;;;;4937435;29;20422;-81
2022/01/20 07:08:33;;;;;;;0.30;0.20;;;2.20;99.90;;;;;;4937185;29;20983;-81
2022/01/20 07:11:00;;;;;;;0.30;0.20;;;2.20;99.90;;;;;;4937471;29;20515;-81
2022/01/20 07:13:26;;;;;;;0.30;0.30;;;2.30;99.90;;;;;;4937131;29;20447;-81
2022/01/20 07:15:54;;;;;;;0.30;0.20;;;2.30;99.90;;;;;;4937313;29;20850;-81
2022/01/20 07:18:22;;;;;;;0.30;0.20;;;2.30;99.90;;;;;;4937193;29;21003;-81
2022/01/20 07:20:49;;;;;;;0.30;0.30;;;2.30;99.90;;;;;;4937038;29;20832;-82
2022/01/20 07:23:16;;;;;;;0.30;0.20;;;2.20;99.90;;;;;;4936962;29;20443;-82
2022/01/20 07:25:42;;;;;;;0.30;0.20;;;2.20;99.90;;;;;;4937112;29;20546;-82
2022/01/20 07:28:09;;;;;;;0.30;0.20;;;2.20;99.90;;;;;;4936935;29;20462;-82
2022/01/20 07:30:36;;;;;;;0.30;0.20;;;2.10;99.90;;;;;;4936822;29;20440;-82
2022/01/20 07:33:05;;;;;;;0.30;0.23;;;2.10;99.90;;;;;;4937062;29;20463;-82
2022/01/20 07:35:33;;;;;;;0.30;0.20;;;2.10;99.90;;;;;;4936663;29;21045;-82
2022/01/20 07:38:00;;;;;;;0.30;0.20;;;2.10;99.90;;;;;;4936921;29;20489;-82
2022/01/20 07:40:27;;;;;;;0.30;0.20;;;2.00;99.90;;;;;;4937011;29;20455;-82
2022/01/20 07:42:53;;;;;;;0.73;0.50;;;2.00;99.90;;;;;;4937430;29;20455;-82
2022/01/20 07:45:21;;;;;;;0.30;0.27;;;2.00;99.90;;;;;;4936505;29;20479;-82
2022/01/20 07:47:48;;;;;;;0.30;0.30;;;1.90;99.90;;;;;;4937088;29;20495;-82
2022/01/20 07:50:15;;;;;;;0.30;0.30;;;1.90;99.90;;;;;;4936732;29;20454;-82
2022/01/20 07:52:43;;;;;;;0.30;0.20;;;1.90;99.90;;;;;;4936594;29;20832;-82
2022/01/20 07:55:10;;;;;;;0.30;0.30;;;1.90;99.90;;;;;;4936311;29;20511;-82
2022/01/20 07:57:37;;;;;;;0.70;0.70;;;1.80;99.90;;;;;;4936522;29;20845;-82
2022/01/20 08:00:05;;;;;;;0.30;0.30;;;1.90;99.90;;;;;;4936489;29;20458;-82
2022/01/20 08:02:33;;;;;;;0.30;0.30;;;1.90;99.90;;;;;;4936574;29;20823;-82
2022/01/20 08:04:59;;;;;;;0.30;0.30;;;2.00;99.90;;;;;;4936393;29;20879;-82
2022/01/20 08:07:26;;;;;;;0.30;0.30;;;2.20;99.90;;;;;;4928666;29;20827;-81
2022/01/20 08:09:58;;;;;;;0.30;0.20;;;2.30;99.90;;;;;;4936509;29;20462;-82
2022/01/20 08:12:25;;;;;;;0.40;0.40;;;2.30;99.90;;;;;;4936701;29;20454;-83
2022/01/20 08:14:51;;;;;;;0.40;0.40;;;2.30;99.90;;;;;;4935244;29;20485;-83
2022/01/20 08:17:20;;;;;;;0.30;0.20;;;2.30;99.90;;;;;;4936324;29;20439;-82
2022/01/20 08:19:46;;;;;;;0.30;0.30;;;2.30;99.90;;;;;;4936101;29;20439;-82
2022/01/20 08:22:13;;;;;;;0.30;0.20;;;2.40;99.90;;;;;;4936269;29;20456;-83
2022/01/20 08:24:41;;;;;;;0.30;0.30;;;2.60;99.90;;;;;;4936012;29;20836;-82
2022/01/20 08:27:09;;;;;;;0.30;0.20;;;2.80;99.90;;;;;;4936326;29;20814;-82
2022/01/20 08:29:36;;;;;;;0.30;0.23;;;3.00;99.90;;;;;;4935896;29;20439;-82
2022/01/20 08:32:04;;;;;;;0.30;0.20;;;3.10;99.90;;;;;;4935931;29;20998;-83
2022/01/20 08:34:31;;;;;;;0.30;0.20;;;3.20;99.90;;;;;;4935932;29;20994;-82
2022/01/20 08:36:59;;;;;;;0.73;0.73;;;3.30;99.90;;;;;;4936643;29;20455;-83
2022/01/20 08:39:45;;;;;;;0.30;0.20;;;3.30;99.90;;;;;;4938292;29;20531;-82
2022/01/20 08:42:13;;;;;;;0.30;0.30;;;3.20;99.90;;;;;;4936021;29;20834;-82
2022/01/20 08:44:41;;;;;;;0.50;0.50;;;3.30;99.90;;;;;;4935960;29;20475;-82
2022/01/20 08:47:15;;;;;;;0.30;0.20;;;3.30;99.90;;;;;;4935848;29;20451;-83
2022/01/20 08:49:42;;;;;;;0.30;0.30;;;3.30;99.90;;;;;;4936061;29;20510;-83
2022/01/20 08:52:09;;;;;;;0.30;0.30;;;3.30;99.90;;;;;;4935701;29;20439;-83
2022/01/20 08:54:36;;;;;;;0.30;0.30;;;3.40;99.90;;;;;;4935760;29;20478;-83
2022/01/20 08:57:03;;;;;;;0.33;0.33;;;3.30;99.90;;;;;;4935867;29;20440;-82
2022/01/20 08:59:31;;;;;;;0.30;0.30;;;3.30;99.90;;;;;;4935663;29;20483;-83
2022/01/20 09:01:58;;;;;;;0.30;0.20;;;3.40;99.90;;;;;;4936072;29;20455;-83
2022/01/20 09:04:25;;;;;;;0.30;0.30;;;3.40;99.90;;;;;;4935602;29;20472;-83
2022/01/20 09:06:51;;;;;;;0.30;0.30;;;3.50;99.90;;;;;;4935781;29;20439;-83
2022/01/20 09:09:20;;;;;;;0.30;0.20;;;3.50;99.90;;;;;;4935591;29;20445;-83
2022/01/20 09:11:51;;;;;;;0.30;0.20;;;3.50;99.90;;;;;;4935522;29;20805;-83
2022/01/20 09:17:04;;;;;;;0.30;0.27;;;3.50;99.90;;;;;;4935907;29;20485;-84
2022/01/20 09:19:31;;;;;;;0.30;0.30;;;3.60;99.90;;;;;;4935437;29;20487;-83
2022/01/20 09:21:58;;;;;;;0.40;0.30;;;3.70;99.90;;;;;;4935857;29;20455;-83
2022/01/20 09:24:27;;;;;;;0.30;0.20;;;3.70;99.90;;;;;;4935704;29;20561;-83
2022/01/20 09:26:54;;;;;;;0.30;0.20;;;3.80;99.90;;;;;;4938415;29;20986;-84
2022/01/20 09:29:21;;;;;;;0.30;0.30;;;4.00;99.90;;;;;;4939423;29;20455;-82
2022/01/20 09:31:50;;;;;;;0.30;0.30;;;4.10;99.90;;;;;;4939120;29;20444;-81
2022/01/20 09:34:18;;;;;;;0.30;0.20;;;4.30;99.90;;;;;;4939098;29;20475;-81
2022/01/20 09:36:45;;;;;;;0.30;0.30;;;4.30;99.90;;;;;;4939142;29;20447;-84
2022/01/20 09:39:13;;;;;;;0.30;0.30;;;4.40;99.90;;;;;;4939385;29;20541;-85
2022/01/20 09:41:39;;;;;;;0.30;0.30;;;4.50;99.90;;;;;;4939162;29;20454;-85
2022/01/20 09:44:08;;;;;;;0.40;0.30;;;4.50;99.90;;;;;;4938823;29;20987;-85
2022/01/20 09:46:35;;;;;;;0.30;0.30;;;4.60;99.90;;;;;;4939249;29;20451;-85
2022/01/20 09:49:02;;;;;;;0.30;0.20;;;4.60;99.90;;;;;;4938971;29;20451;-85
2022/01/20 09:51:30;;;;;;;0.30;0.20;;;4.50;99.90;;;;;;4939089;29;20977;-85
2022/01/20 09:53:57;;;;;;;0.30;0.20;;;4.50;99.90;;;;;;4938879;29;20478;-85
2022/01/20 09:56:24;;;;;;;0.30;0.20;;;4.40;99.90;;;;;;4939166;29;20455;-85
2022/01/20 09:58:51;;;;;;;0.30;0.30;;;4.40;99.90;;;;;;4938976;29;20483;-85
2022/01/20 10:01:37;;;;;;;0.30;0.30;;;4.50;99.90;;;;;;4938970;29;20446;-85
2022/01/20 10:04:04;;;;;;;0.30;0.20;;;4.70;99.90;;;;;;4938536;29;20998;-85
2022/01/20 10:06:32;;;;;;;0.30;0.20;;;4.80;99.90;;;;;;4938760;29;20451;-85
2022/01/20 10:09:00;;;;;;;0.30;0.20;;;4.80;99.90;;;;;;4938618;29;20439;-85
2022/01/20 10:11:27;;;;;;;0.30;0.20;;;4.90;99.90;;;;;;4938730;29;20455;-85
2022/01/20 10:13:57;;;;;;;0.30;0.20;;;5.10;99.90;;;;;;4938713;29;20538;-85
2022/01/20 10:16:23;;;;;;;0.43;0.40;;;5.10;99.90;;;;;;4938586;29;20475;-85
2022/01/20 10:18:53;;;;;;;0.30;0.20;;;5.00;99.90;;;;;;4938395;29;20494;-85
2022/01/20 10:21:28;;;;;;;0.30;0.30;;;5.00;99.90;;;;;;4938439;29;20444;-85
2022/01/20 10:24:04;;;;;;;0.30;0.20;;;5.10;99.90;;;;;;4938557;29;20486;-84
2022/01/20 10:26:32;;;;;;;0.30;0.30;;;5.10;99.90;;;;;;4938428;29;20459;-85
2022/01/20 10:29:01;;;;;;;0.30;0.20;;;5.10;99.90;;;;;;4938353;29;20443;-86
2022/01/20 10:31:37;;;;;;;0.30;0.30;;;5.20;99.90;;;;;;4938464;29;20440;-85
2022/01/20 10:34:06;;;;;;;0.30;0.20;;;5.20;99.90;;;;;;4938474;29;20470;-85
2022/01/20 10:36:38;;;;;;;0.30;0.30;;;5.30;99.90;;;;;;4940397;29;20539;-85
2022/01/20 10:39:06;;;;;;;0.30;0.20;;;5.20;99.90;;;;;;4957472;29;20491;-85
2022/01/20 10:41:36;;;;;;;0.30;0.20;;;5.20;99.90;;;;;;4953766;29;20451;-85
2022/01/20 10:44:13;;;;;;;0.30;0.30;;;5.10;99.90;;;;;;4938401;29;20990;-86
2022/01/20 10:46:46;;;;;;;0.30;0.20;;;5.10;99.90;;;;;;4938486;29;20443;-86
2022/01/20 10:49:13;;;;;;;0.30;0.30;;;5.10;99.90;;;;;;4938587;29;20443;-86
2022/01/20 10:51:40;;;;;;;0.30;0.20;;;5.00;99.90;;;;;;4938210;29;20443;-86
2022/01/20 10:54:11;;;;;;;0.30;0.30;;;5.00;99.90;;;;;;4938090;29;20841;-85
2022/01/20 10:56:48;;;;;;;0.30;0.30;;;4.90;99.90;;;;;;4937996;29;20447;-86
2022/01/20 10:59:15;;;;;;;0.30;0.20;;;4.80;99.90;;;;;;4937912;29;20471;-86
2022/01/20 11:01:41;;;;;;;0.30;0.20;;;4.80;99.90;;;;;;4938131;29;20459;-86
2022/01/20 11:04:10;;;;;;;0.60;0.60;;;4.70;99.90;;;;;;4937959;29;20477;-86
2022/01/20 11:06:37;;;;;;;0.30;0.20;;;4.70;99.90;;;;;;4938496;29;20482;-86
2022/01/20 11:09:06;;;;;;;0.30;0.20;;;4.60;99.90;;;;;;4937671;29;20475;-86
2022/01/20 11:11:35;;;;;;;0.30;0.20;;;4.60;99.90;;;;;;4938048;29;20452;-86
2022/01/20 11:14:02;;;;;;;0.30;0.20;;;4.60;99.90;;;;;;4937555;29;20485;-86
2022/01/20 11:16:29;;;;;;;0.30;0.30;;;4.60;99.90;;;;;;4937384;29;20497;-85
2022/01/20 11:18:58;;;;;;;0.30;0.20;;;4.50;99.90;;;;;;4937257;29;20467;-85
2022/01/20 11:21:26;;;;;;;0.30;0.20;;;4.50;99.90;;;;;;4937598;29;20470;-87
2022/01/20 11:23:53;;;;;;;2.10;0.80;;;4.40;99.90;;;;;;4937235;29;21014;-86
2022/01/20 11:26:20;;;;;;;0.40;0.37;;;4.30;99.90;;;;;;4937686;29;20443;-86
2022/01/20 11:29:01;;;;;;;0.30;0.30;;;4.40;99.90;;;;;;4937300;29;20446;-85
2022/01/20 11:31:34;;;;;;;0.30;0.20;;;4.50;99.90;;;;;;4937169;29;20440;-86
2022/01/20 11:34:01;;;;;;;0.30;0.30;;;4.50;99.90;;;;;;4937353;29;20475;-86
2022/01/20 11:36:31;;;;;;;0.30;0.20;;;4.60;99.90;;;;;;4937134;29;20839;-86
2022/01/20 11:39:02;;;;;;;0.30;0.20;;;4.60;99.90;;;;;;4937114;29;20481;-85
2022/01/20 11:41:37;;;;;;;0.30;0.20;;;4.60;99.90;;;;;;4929850;29;20447;-86
2022/01/20 11:44:12;;;;;;;0.77;0.40;;;4.70;99.90;;;;;;4937328;29;20466;-86
2022/01/20 11:46:41;;;;;;;0.30;0.20;;;4.70;99.90;;;;;;4937175;29;20969;-86
2022/01/20 11:49:10;;;;;;;0.30;0.20;;;4.70;99.90;;;;;;4935785;29;20455;-86
2022/01/20 11:51:46;;;;;;;0.30;0.30;;;4.60;99.90;;;;;;4937072;29;20463;-87
2022/01/20 11:54:16;;;;;;;0.30;0.20;;;4.50;99.90;;;;;;4936996;29;20477;-86
2022/01/20 11:56:45;;;;;;;0.30;0.20;;;4.60;99.90;;;;;;4937285;29;20467;-86
2022/01/20 11:59:15;;;;;;;0.30;0.23;;;4.60;99.90;;;;;;4936991;29;20498;-85
2022/01/20 12:01:48;;;;;;;0.30;0.30;;;4.60;99.90;;;;;;4936905;29;20959;-85
2022/01/20 12:04:15;;;;;;;0.30;0.20;;;4.70;99.90;;;;;;4936967;29;20471;-85
2022/01/20 12:06:47;;;;;;;0.30;0.30;;;4.80;99.90;;;;;;4936524;29;20444;-86
2022/01/20 12:09:15;;;;;;;0.30;0.30;;;4.80;99.90;;;;;;4936866;29;20534;-85
2022/01/20 12:11:45;;;;;;;0.30;0.27;;;4.90;99.90;;;;;;4936808;29;20455;-86
2022/01/20 12:14:14;;;;;;;0.30;0.20;;;4.90;99.90;;;;;;4936434;29;20483;-85
2022/01/20 12:16:42;;;;;;;0.30;0.30;;;4.90;99.90;;;;;;4936942;29;20448;-84
2022/01/20 12:19:11;;;;;;;0.30;0.20;;;4.80;99.90;;;;;;4936777;29;20483;-84
2022/01/20 12:21:48;;;;;;;0.30;0.20;;;4.70;99.90;;;;;;4936522;29;20795;-84
2022/01/20 12:24:17;;;;;;;0.40;0.40;;;4.70;99.90;;;;;;4937170;29;20481;-88
2022/01/20 12:26:46;;;;;;;0.30;0.20;;;4.70;99.90;;;;;;4936968;29;20459;-87
2022/01/20 12:29:14;;;;;;;0.30;0.30;;;4.80;99.90;;;;;;4937231;29;20439;-88
2022/01/20 12:31:48;;;;;;;0.30;0.20;;;5.00;99.90;;;;;;4936522;29;20463;-84
2022/01/20 12:34:14;;;;;;;0.37;0.37;;;5.20;99.90;;;;;;4936486;29;20839;-86
2022/01/20 12:36:42;;;;;;;0.30;0.20;;;5.20;99.90;;;;;;4936368;29;20439;-85
2022/01/20 12:39:11;;;;;;;0.40;0.40;;;5.20;99.90;;;;;;4936447;29;20476;-85
2022/01/20 12:41:38;;;;;;;0.30;0.20;;;5.20;99.90;;;;;;4936433;29;20428;-86
2022/01/20 12:44:06;;;;;;;0.50;0.30;;;5.20;99.90;;;;;;4936225;29;20968;-86
2022/01/20 12:46:37;;;;;;;0.40;0.27;;;5.10;99.90;;;;;;4936410;29;20432;-86
2022/01/20 12:49:08;;;;;;;0.30;0.20;;;5.00;99.90;;;;;;4936849;29;20547;-86
2022/01/20 12:51:36;;;;;;;0.30;0.30;;;4.90;99.90;;;;;;4936640;29;20454;-86
2022/01/20 12:54:06;;;;;;;0.30;0.20;;;4.90;99.90;;;;;;4936400;29;20475;-86
2022/01/20 12:56:36;;;;;;;0.30;0.20;;;4.80;99.90;;;;;;4936410;29;20443;-86
2022/01/20 12:59:04;;;;;;;0.30;0.27;;;4.80;99.90;;;;;;4936468;29;20475;-86
2022/01/20 13:01:44;;;;;;;0.30;0.20;;;4.80;99.90;;;;;;4938812;29;20424;-86
2022/01/20 13:04:14;;;;;;;0.30;0.20;;;4.90;99.90;;;;;;4940833;29;20489;-86
2022/01/20 13:06:45;;;;;;;0.30;0.20;;;4.80;99.90;;;;;;4940357;29;20435;-86
2022/01/20 13:09:13;;;;;;;0.33;0.33;;;4.80;99.90;;;;;;4940603;29;20982;-86
2022/01/20 13:11:45;;;;;;;0.30;0.20;;;4.70;99.90;;;;;;4940297;29;20440;-86
2022/01/20 13:14:13;;;;;;;2.00;1.90;;;4.50;99.90;;;;;;4940345;29;20566;-85
2022/01/20 13:16:51;;;;;;;0.30;0.30;;;4.30;99.90;;;;;;4940701;29;20449;-86
2022/01/20 13:19:18;;;;;;;0.30;0.30;;;4.00;99.90;;;;;;4940065;29;20478;-86
2022/01/20 13:21:51;;;;;;;0.30;0.20;;;3.80;99.90;;;;;;4939684;29;20982;-86
2022/01/20 13:24:26;;;;;;;0.30;0.27;;;3.40;99.90;;;;;;4939933;29;20951;-86
2022/01/20 13:26:54;;;;;;;0.30;0.20;;;3.10;99.90;;;;;;4940124;29;20426;-86
2022/01/20 13:29:23;;;;;;;0.30;0.20;;;2.90;99.90;;;;;;4939903;29;20428;-87
2022/01/20 13:31:55;;;;;;;0.30;0.30;;;2.70;99.90;;;;;;4939452;29;20927;-87
2022/01/20 13:34:22;;;;;;;0.97;0.97;;;2.60;99.90;;;;;;4939792;29;20839;-87
2022/01/20 13:36:51;;;;;;;0.30;0.20;;;2.50;99.90;;;;;;4939940;29;20436;-87
2022/01/20 13:39:29;;;;;;;0.30;0.30;;;2.50;99.90;;;;;;4940073;29;20479;-87
2022/01/20 13:42:05;;;;;;;0.30;0.30;;;2.40;99.90;;;;;;4939738;29;21006;-87
2022/01/20 13:47:18;;;;;;;0.30;0.30;;;2.50;99.90;;;;;;4940321;29;20454;-87
2022/01/20 13:49:49;;;;;;;0.30;0.30;;;2.50;99.90;;;;;;4940299;29;20812;-87
2022/01/20 13:52:19;;;;;;;0.30;0.30;;;2.40;99.90;;;;;;4939651;29;20467;-88